Terminal Aerodrome Forecast
Issued by NWS Anchorage, AK

Home | Current Version | Previous Version | Text Only | Print | Product List | Glossary On
Versions: 1 2 3 4 5 6 7 8 9 10 11 12 13 14 15 16 17
000
FTAK31 PANC 242345
TAFANC
TAF
PANC 242345Z 2500/2606 30006KT P6SM SCT045
     FM250200 15011KT P6SM SCT045
     FM250900 VRB05KT P6SM BKN100
     FM251700 33005KT P6SM BKN080=

USA.gov is the U.S. government's official web portal to all federal, state and local government web resources and services.